sensor_id;sensor_type;location;lat;lon;timestamp;temperature;humidity
573;DHT22;271;51.114;13.780;2022-08-20T00:00:50;20.80;1.00
573;DHT22;271;51.114;13.780;2022-08-20T00:03:20;20.80;1.00
573;DHT22;271;51.114;13.780;2022-08-20T00:05:49;20.80;1.00
573;DHT22;271;51.114;13.780;2022-08-20T00:08:19;20.70;1.00
573;DHT22;271;51.114;13.780;2022-08-20T00:10:47;20.70;1.00
573;DHT22;271;51.114;13.780;2022-08-20T00:13:17;20.70;1.00
573;DHT22;271;51.114;13.780;2022-08-20T00:15:45;20.70;1.00
573;DHT22;271;51.114;13.780;2022-08-20T00:18:12;20.70;1.00
573;DHT22;271;51.114;13.780;2022-08-20T00:20:41;20.60;1.00
573;DHT22;271;51.114;13.780;2022-08-20T00:23:09;20.70;1.00
573;DHT22;271;51.114;13.780;2022-08-20T00:25:37;20.60;1.00
573;DHT22;271;51.114;13.780;2022-08-20T00:28:05;20.60;1.00
573;DHT22;271;51.114;13.780;2022-08-20T00:30:33;20.60;1.00
573;DHT22;271;51.114;13.780;2022-08-20T00:33:04;20.60;1.00
573;DHT22;271;51.114;13.780;2022-08-20T00:35:34;20.60;1.00
573;DHT22;271;51.114;13.780;2022-08-20T00:38:02;20.60;1.00
573;DHT22;271;51.114;13.780;2022-08-20T00:40:31;20.50;1.00
573;DHT22;271;51.114;13.780;2022-08-20T00:43:04;20.60;1.00
573;DHT22;271;51.114;13.780;2022-08-20T00:45:33;20.60;1.00
573;DHT22;271;51.114;13.780;2022-08-20T00:48:00;20.60;1.00
573;DHT22;271;51.114;13.780;2022-08-20T00:50:31;20.50;1.00
573;DHT22;271;51.114;13.780;2022-08-20T00:53:00;20.50;1.00
573;DHT22;271;51.114;13.780;2022-08-20T00:55:29;20.50;1.00
573;DHT22;271;51.114;13.780;2022-08-20T00:57:59;20.50;1.00
573;DHT22;271;51.114;13.780;2022-08-20T01:00:30;20.50;1.00
573;DHT22;271;51.114;13.780;2022-08-20T01:02:58;20.50;1.00
573;DHT22;271;51.114;13.780;2022-08-20T01:05:26;20.50;1.00
573;DHT22;271;51.114;13.780;2022-08-20T01:07:53;20.50;1.00
573;DHT22;271;51.114;13.780;2022-08-20T01:10:22;20.50;1.00
573;DHT22;271;51.114;13.780;2022-08-20T01:12:51;20.50;1.00
573;DHT22;271;51.114;13.780;2022-08-20T01:15:21;20.50;1.00
573;DHT22;271;51.114;13.780;2022-08-20T01:17:52;20.50;1.00
573;DHT22;271;51.114;13.780;2022-08-20T01:20:25;20.50;1.00
573;DHT22;271;51.114;13.780;2022-08-20T01:23:00;20.50;1.00
573;DHT22;271;51.114;13.780;2022-08-20T01:25:49;20.50;1.00
573;DHT22;271;51.114;13.780;2022-08-20T01:28:21;20.40;1.00
573;DHT22;271;51.114;13.780;2022-08-20T01:30:48;20.30;1.00
573;DHT22;271;51.114;13.780;2022-08-20T01:33:16;20.30;1.00
573;DHT22;271;51.114;13.780;2022-08-20T01:35:43;20.30;1.00
573;DHT22;271;51.114;13.780;2022-08-20T01:38:11;20.30;1.00
573;DHT22;271;51.114;13.780;2022-08-20T01:40:54;20.30;1.00
573;DHT22;271;51.114;13.780;2022-08-20T01:43:22;20.20;1.00
573;DHT22;271;51.114;13.780;2022-08-20T01:45:50;20.20;1.00
573;DHT22;271;51.114;13.780;2022-08-20T01:48:18;20.10;1.00
573;DHT22;271;51.114;13.780;2022-08-20T01:50:50;20.20;1.00
573;DHT22;271;51.114;13.780;2022-08-20T01:53:24;20.00;1.00
573;DHT22;271;51.114;13.780;2022-08-20T01:55:53;20.10;1.00
573;DHT22;271;51.114;13.780;2022-08-20T01:58:20;20.10;1.00
573;DHT22;271;51.114;13.780;2022-08-20T02:00:47;20.10;1.00
573;DHT22;271;51.114;13.780;2022-08-20T02:03:13;20.10;1.00
573;DHT22;271;51.114;13.780;2022-08-20T02:05:40;20.10;1.00
573;DHT22;271;51.114;13.780;2022-08-20T02:08:07;20.10;1.00
573;DHT22;271;51.114;13.780;2022-08-20T02:10:34;20.10;1.00
573;DHT22;271;51.114;13.780;2022-08-20T02:13:03;20.00;1.00
573;DHT22;271;51.114;13.780;2022-08-20T02:15:32;20.00;1.00
573;DHT22;271;51.114;13.780;2022-08-20T02:18:01;19.90;1.00
573;DHT22;271;51.114;13.780;2022-08-20T02:20:29;19.90;1.00
573;DHT22;271;51.114;13.780;2022-08-20T02:22:58;19.90;1.00
573;DHT22;271;51.114;13.780;2022-08-20T02:25:27;19.80;1.00
573;DHT22;271;51.114;13.780;2022-08-20T02:27:56;19.80;1.00
573;DHT22;271;51.114;13.780;2022-08-20T02:30:29;19.80;1.00
573;DHT22;271;51.114;13.780;2022-08-20T02:32:59;19.80;1.00
573;DHT22;271;51.114;13.780;2022-08-20T02:35:27;19.70;1.00
573;DHT22;271;51.114;13.780;2022-08-20T02:37:54;19.60;1.00
573;DHT22;271;51.114;13.780;2022-08-20T02:40:23;19.60;1.00
573;DHT22;271;51.114;13.780;2022-08-20T02:42:51;19.60;1.00
573;DHT22;271;51.114;13.780;2022-08-20T02:45:19;19.50;1.00
573;DHT22;271;51.114;13.780;2022-08-20T02:47:49;19.50;1.00
573;DHT22;271;51.114;13.780;2022-08-20T02:50:19;19.60;1.00
573;DHT22;271;51.114;13.780;2022-08-20T02:52:46;19.50;3.80
573;DHT22;271;51.114;13.780;2022-08-20T02:55:14;19.50;5.30
573;DHT22;271;51.114;13.780;2022-08-20T02:57:41;19.50;4.90
573;DHT22;271;51.114;13.780;2022-08-20T03:00:11;19.40;7.20
573;DHT22;271;51.114;13.780;2022-08-20T03:02:39;19.40;6.70
573;DHT22;271;51.114;13.780;2022-08-20T03:05:08;19.40;10.10
573;DHT22;271;51.114;13.780;2022-08-20T03:07:40;19.40;10.70
573;DHT22;271;51.114;13.780;2022-08-20T03:10:08;19.30;11.40
573;DHT22;271;51.114;13.780;2022-08-20T03:12:35;19.30;14.70
573;DHT22;271;51.114;13.780;2022-08-20T03:15:03;19.30;18.50
573;DHT22;271;51.114;13.780;2022-08-20T03:17:30;19.20;19.00
573;DHT22;271;51.114;13.780;2022-08-20T03:19:57;19.20;20.90
573;DHT22;271;51.114;13.780;2022-08-20T03:22:25;19.20;19.80
573;DHT22;271;51.114;13.780;2022-08-20T03:24:53;19.20;22.30
573;DHT22;271;51.114;13.780;2022-08-20T03:27:20;19.20;24.10
573;DHT22;271;51.114;13.780;2022-08-20T03:29:46;19.20;26.50
573;DHT22;271;51.114;13.780;2022-08-20T03:32:13;19.20;28.50
573;DHT22;271;51.114;13.780;2022-08-20T03:34:40;19.10;27.10
573;DHT22;271;51.114;13.780;2022-08-20T03:37:07;19.10;30.20
573;DHT22;271;51.114;13.780;2022-08-20T03:39:35;19.10;30.70
573;DHT22;271;51.114;13.780;2022-08-20T03:42:03;19.10;32.00
573;DHT22;271;51.114;13.780;2022-08-20T03:44:30;19.10;34.80
573;DHT22;271;51.114;13.780;2022-08-20T03:46:57;19.10;35.40
573;DHT22;271;51.114;13.780;2022-08-20T03:49:23;19.10;36.10
573;DHT22;271;51.114;13.780;2022-08-20T03:51:51;19.10;34.90
573;DHT22;271;51.114;13.780;2022-08-20T03:54:18;19.00;33.90
573;DHT22;271;51.114;13.780;2022-08-20T03:56:46;19.00;35.90
573;DHT22;271;51.114;13.780;2022-08-20T03:59:13;19.00;36.70
573;DHT22;271;51.114;13.780;2022-08-20T04:01:39;19.00;38.60
573;DHT22;271;51.114;13.780;2022-08-20T04:04:06;19.00;38.70
573;DHT22;271;51.114;13.780;2022-08-20T04:06:33;19.00;38.90
573;DHT22;271;51.114;13.780;2022-08-20T04:09:01;19.00;38.10
573;DHT22;271;51.114;13.780;2022-08-20T04:11:28;19.00;38.30
573;DHT22;271;51.114;13.780;2022-08-20T04:13:56;19.00;38.00
573;DHT22;271;51.114;13.780;2022-08-20T04:16:23;19.00;38.30
573;DHT22;271;51.114;13.780;2022-08-20T04:18:52;19.00;40.20
573;DHT22;271;51.114;13.780;2022-08-20T04:21:18;19.00;43.00
573;DHT22;271;51.114;13.780;2022-08-20T04:23:45;19.00;42.70
573;DHT22;271;51.114;13.780;2022-08-20T04:26:12;19.00;39.70
573;DHT22;271;51.114;13.780;2022-08-20T04:28:39;19.00;42.10
573;DHT22;271;51.114;13.780;2022-08-20T04:31:07;19.00;43.80
573;DHT22;271;51.114;13.780;2022-08-20T04:33:34;19.00;43.50
573;DHT22;271;51.114;13.780;2022-08-20T04:36:02;19.00;43.50
573;DHT22;271;51.114;13.780;2022-08-20T04:38:31;19.00;44.70
573;DHT22;271;51.114;13.780;2022-08-20T04:40:58;19.00;44.10
573;DHT22;271;51.114;13.780;2022-08-20T04:43:26;18.90;45.00
573;DHT22;271;51.114;13.780;2022-08-20T04:45:54;19.00;47.70
573;DHT22;271;51.114;13.780;2022-08-20T04:48:24;19.00;46.60
573;DHT22;271;51.114;13.780;2022-08-20T04:50:53;18.90;45.10
573;DHT22;271;51.114;13.780;2022-08-20T04:53:22;18.90;43.30
573;DHT22;271;51.114;13.780;2022-08-20T04:55:50;18.90;43.80
573;DHT22;271;51.114;13.780;2022-08-20T04:58:19;18.90;45.20
573;DHT22;271;51.114;13.780;2022-08-20T05:00:48;19.00;48.00
573;DHT22;271;51.114;13.780;2022-08-20T05:03:16;19.00;47.50
573;DHT22;271;51.114;13.780;2022-08-20T05:05:45;18.90;46.00
573;DHT22;271;51.114;13.780;2022-08-20T05:08:13;18.90;45.90
573;DHT22;271;51.114;13.780;2022-08-20T05:10:41;18.90;49.20
573;DHT22;271;51.114;13.780;2022-08-20T05:13:08;19.00;49.30
573;DHT22;271;51.114;13.780;2022-08-20T05:15:36;19.00;47.50
573;DHT22;271;51.114;13.780;2022-08-20T05:18:06;19.00;48.90
573;DHT22;271;51.114;13.780;2022-08-20T05:20:34;19.00;49.60
573;DHT22;271;51.114;13.780;2022-08-20T05:23:07;19.00;50.90
573;DHT22;271;51.114;13.780;2022-08-20T05:25:34;19.00;49.10
573;DHT22;271;51.114;13.780;2022-08-20T05:28:04;19.00;51.90
573;DHT22;271;51.114;13.780;2022-08-20T05:30:34;19.00;52.10
573;DHT22;271;51.114;13.780;2022-08-20T05:33:03;19.00;53.00
573;DHT22;271;51.114;13.780;2022-08-20T05:35:31;19.00;51.00
573;DHT22;271;51.114;13.780;2022-08-20T05:38:00;19.00;51.30
573;DHT22;271;51.114;13.780;2022-08-20T05:40:29;19.00;52.90
573;DHT22;271;51.114;13.780;2022-08-20T05:42:56;19.00;53.60
573;DHT22;271;51.114;13.780;2022-08-20T05:45:22;19.00;55.50
573;DHT22;271;51.114;13.780;2022-08-20T05:47:49;19.00;56.10
573;DHT22;271;51.114;13.780;2022-08-20T05:50:17;19.00;54.50
573;DHT22;271;51.114;13.780;2022-08-20T05:52:44;19.00;54.10
573;DHT22;271;51.114;13.780;2022-08-20T05:55:11;19.00;56.60
573;DHT22;271;51.114;13.780;2022-08-20T05:57:40;19.00;57.20
573;DHT22;271;51.114;13.780;2022-08-20T06:00:09;19.00;55.80
573;DHT22;271;51.114;13.780;2022-08-20T06:02:37;19.00;57.10
573;DHT22;271;51.114;13.780;2022-08-20T06:05:22;19.00;59.80
573;DHT22;271;51.114;13.780;2022-08-20T06:07:49;19.00;60.20
573;DHT22;271;51.114;13.780;2022-08-20T06:10:16;19.00;60.50
573;DHT22;271;51.114;13.780;2022-08-20T06:12:44;19.00;60.60
573;DHT22;271;51.114;13.780;2022-08-20T06:15:12;18.90;59.60
573;DHT22;271;51.114;13.780;2022-08-20T06:17:39;18.90;59.60
573;DHT22;271;51.114;13.780;2022-08-20T06:20:07;19.00;61.70
573;DHT22;271;51.114;13.780;2022-08-20T06:22:34;18.90;60.70
573;DHT22;271;51.114;13.780;2022-08-20T06:25:03;19.00;61.50
573;DHT22;271;51.114;13.780;2022-08-20T06:27:31;19.00;62.40
573;DHT22;271;51.114;13.780;2022-08-20T06:29:59;19.10;62.40
573;DHT22;271;51.114;13.780;2022-08-20T06:32:26;19.00;62.80
573;DHT22;271;51.114;13.780;2022-08-20T06:34:53;19.00;61.80
573;DHT22;271;51.114;13.780;2022-08-20T06:37:22;19.00;62.90
573;DHT22;271;51.114;13.780;2022-08-20T06:39:50;19.00;63.00
573;DHT22;271;51.114;13.780;2022-08-20T06:42:17;19.00;63.20
573;DHT22;271;51.114;13.780;2022-08-20T06:44:44;19.00;64.00
573;DHT22;271;51.114;13.780;2022-08-20T06:47:16;19.10;65.30
573;DHT22;271;51.114;13.780;2022-08-20T06:49:43;19.00;65.30
573;DHT22;271;51.114;13.780;2022-08-20T06:52:11;19.10;64.70
573;DHT22;271;51.114;13.780;2022-08-20T06:54:41;19.10;65.40
573;DHT22;271;51.114;13.780;2022-08-20T06:57:08;19.10;66.60
573;DHT22;271;51.114;13.780;2022-08-20T06:59:35;19.10;66.90
573;DHT22;271;51.114;13.780;2022-08-20T07:02:02;19.10;67.10
573;DHT22;271;51.114;13.780;2022-08-20T07:04:31;19.10;66.80
573;DHT22;271;51.114;13.780;2022-08-20T07:06:58;19.10;66.60
573;DHT22;271;51.114;13.780;2022-08-20T07:09:26;19.10;64.70
573;DHT22;271;51.114;13.780;2022-08-20T07:11:52;19.20;65.90
573;DHT22;271;51.114;13.780;2022-08-20T07:14:21;19.20;65.40
573;DHT22;271;51.114;13.780;2022-08-20T07:16:48;19.20;66.40
573;DHT22;271;51.114;13.780;2022-08-20T07:19:15;19.30;66.80
573;DHT22;271;51.114;13.780;2022-08-20T07:21:43;19.30;66.90
573;DHT22;271;51.114;13.780;2022-08-20T07:24:12;19.30;66.40
573;DHT22;271;51.114;13.780;2022-08-20T07:26:39;19.30;64.10
573;DHT22;271;51.114;13.780;2022-08-20T07:29:06;19.30;63.60
573;DHT22;271;51.114;13.780;2022-08-20T07:31:33;19.20;61.00
573;DHT22;271;51.114;13.780;2022-08-20T07:34:17;19.20;61.60
573;DHT22;271;51.114;13.780;2022-08-20T07:36:45;19.20;60.30
573;DHT22;271;51.114;13.780;2022-08-20T07:39:14;19.10;57.20
573;DHT22;271;51.114;13.780;2022-08-20T07:41:41;19.00;55.80
573;DHT22;271;51.114;13.780;2022-08-20T07:44:08;19.00;57.00
573;DHT22;271;51.114;13.780;2022-08-20T07:46:35;19.00;57.70
573;DHT22;271;51.114;13.780;2022-08-20T07:49:02;19.10;60.30
573;DHT22;271;51.114;13.780;2022-08-20T07:51:34;19.00;60.40
573;DHT22;271;51.114;13.780;2022-08-20T07:54:03;19.00;60.50
573;DHT22;271;51.114;13.780;2022-08-20T07:56:30;19.10;61.00
573;DHT22;271;51.114;13.780;2022-08-20T07:58:58;19.10;61.90
573;DHT22;271;51.114;13.780;2022-08-20T08:01:28;19.10;62.30
573;DHT22;271;51.114;13.780;2022-08-20T08:03:55;19.10;62.10
573;DHT22;271;51.114;13.780;2022-08-20T08:06:23;19.20;62.30
573;DHT22;271;51.114;13.780;2022-08-20T08:08:50;19.10;61.60
573;DHT22;271;51.114;13.780;2022-08-20T08:11:19;19.10;63.10
573;DHT22;271;51.114;13.780;2022-08-20T08:13:46;19.20;63.60
573;DHT22;271;51.114;13.780;2022-08-20T08:16:13;19.20;61.60
573;DHT22;271;51.114;13.780;2022-08-20T08:18:43;19.20;60.70
573;DHT22;271;51.114;13.780;2022-08-20T08:21:10;19.20;58.20
573;DHT22;271;51.114;13.780;2022-08-20T08:23:38;19.20;58.80
573;DHT22;271;51.114;13.780;2022-08-20T08:26:09;19.20;59.70
573;DHT22;271;51.114;13.780;2022-08-20T08:28:37;19.30;60.60
573;DHT22;271;51.114;13.780;2022-08-20T08:31:05;19.30;62.20
573;DHT22;271;51.114;13.780;2022-08-20T08:33:32;19.30;62.40
573;DHT22;271;51.114;13.780;2022-08-20T08:36:01;19.40;61.00
573;DHT22;271;51.114;13.780;2022-08-20T08:38:29;19.40;57.30
573;DHT22;271;51.114;13.780;2022-08-20T08:40:58;19.40;56.10
573;DHT22;271;51.114;13.780;2022-08-20T08:43:27;19.40;56.40
573;DHT22;271;51.114;13.780;2022-08-20T08:45:58;19.40;57.30
573;DHT22;271;51.114;13.780;2022-08-20T08:48:32;19.40;54.80
573;DHT22;271;51.114;13.780;2022-08-20T08:51:01;19.40;56.20
573;DHT22;271;51.114;13.780;2022-08-20T08:53:32;19.40;56.90
573;DHT22;271;51.114;13.780;2022-08-20T08:56:00;19.50;53.70
573;DHT22;271;51.114;13.780;2022-08-20T08:58:27;19.50;53.10
573;DHT22;271;51.114;13.780;2022-08-20T09:00:56;19.40;49.40
573;DHT22;271;51.114;13.780;2022-08-20T09:03:26;19.40;48.50
573;DHT22;271;51.114;13.780;2022-08-20T09:05:56;19.40;46.40
573;DHT22;271;51.114;13.780;2022-08-20T09:08:27;19.40;48.00
573;DHT22;271;51.114;13.780;2022-08-20T09:11:00;19.40;48.30
573;DHT22;271;51.114;13.780;2022-08-20T09:13:27;19.30;45.20
573;DHT22;271;51.114;13.780;2022-08-20T09:15:54;19.40;46.20
573;DHT22;271;51.114;13.780;2022-08-20T09:18:22;19.30;44.70
573;DHT22;271;51.114;13.780;2022-08-20T09:20:49;19.30;46.50
573;DHT22;271;51.114;13.780;2022-08-20T09:23:15;19.40;46.30
573;DHT22;271;51.114;13.780;2022-08-20T09:25:42;19.30;44.20
573;DHT22;271;51.114;13.780;2022-08-20T09:28:09;19.30;44.30
573;DHT22;271;51.114;13.780;2022-08-20T09:30:36;19.30;45.60
573;DHT22;271;51.114;13.780;2022-08-20T09:33:03;19.40;46.10
573;DHT22;271;51.114;13.780;2022-08-20T09:35:31;19.30;44.80
573;DHT22;271;51.114;13.780;2022-08-20T09:37:58;19.30;48.70
573;DHT22;271;51.114;13.780;2022-08-20T09:40:25;19.30;51.80
573;DHT22;271;51.114;13.780;2022-08-20T09:42:52;19.30;50.90
573;DHT22;271;51.114;13.780;2022-08-20T09:45:19;19.30;50.30
573;DHT22;271;51.114;13.780;2022-08-20T09:47:46;19.30;48.30
573;DHT22;271;51.114;13.780;2022-08-20T09:50:13;19.20;48.70
573;DHT22;271;51.114;13.780;2022-08-20T09:52:44;19.30;49.80
573;DHT22;271;51.114;13.780;2022-08-20T09:55:17;19.30;50.10
573;DHT22;271;51.114;13.780;2022-08-20T09:57:46;19.30;52.20
573;DHT22;271;51.114;13.780;2022-08-20T10:00:14;19.20;49.00
573;DHT22;271;51.114;13.780;2022-08-20T10:02:42;19.20;49.50
573;DHT22;271;51.114;13.780;2022-08-20T10:05:10;19.20;52.70
573;DHT22;271;51.114;13.780;2022-08-20T10:07:38;19.30;54.00
573;DHT22;271;51.114;13.780;2022-08-20T10:10:09;19.30;54.80
573;DHT22;271;51.114;13.780;2022-08-20T10:12:37;19.30;55.30
573;DHT22;271;51.114;13.780;2022-08-20T10:15:07;19.30;54.30
573;DHT22;271;51.114;13.780;2022-08-20T10:17:36;19.20;53.50
573;DHT22;271;51.114;13.780;2022-08-20T10:20:05;19.30;54.80
573;DHT22;271;51.114;13.780;2022-08-20T10:22:33;19.30;56.80
573;DHT22;271;51.114;13.780;2022-08-20T10:25:00;19.30;56.40
573;DHT22;271;51.114;13.780;2022-08-20T10:27:29;19.40;56.80
573;DHT22;271;51.114;13.780;2022-08-20T10:29:57;19.40;56.90
573;DHT22;271;51.114;13.780;2022-08-20T10:32:24;19.40;58.90
573;DHT22;271;51.114;13.780;2022-08-20T10:34:52;19.40;59.20
573;DHT22;271;51.114;13.780;2022-08-20T10:37:21;19.40;60.90
573;DHT22;271;51.114;13.780;2022-08-20T10:39:49;19.40;60.20
573;DHT22;271;51.114;13.780;2022-08-20T10:42:16;19.50;59.80
573;DHT22;271;51.114;13.780;2022-08-20T10:44:46;19.50;58.70
573;DHT22;271;51.114;13.780;2022-08-20T10:47:20;19.40;56.80
573;DHT22;271;51.114;13.780;2022-08-20T10:49:48;19.40;51.60
573;DHT22;271;51.114;13.780;2022-08-20T10:52:16;19.50;53.50
573;DHT22;271;51.114;13.780;2022-08-20T10:54:44;19.50;53.30
573;DHT22;271;51.114;13.780;2022-08-20T10:57:14;19.50;52.70
573;DHT22;271;51.114;13.780;2022-08-20T10:59:46;19.50;53.00
573;DHT22;271;51.114;13.780;2022-08-20T11:02:13;19.50;52.70
573;DHT22;271;51.114;13.780;2022-08-20T11:04:41;19.50;51.40
573;DHT22;271;51.114;13.780;2022-08-20T11:07:10;19.50;53.00
573;DHT22;271;51.114;13.780;2022-08-20T11:09:38;19.40;54.30
573;DHT22;271;51.114;13.780;2022-08-20T11:12:06;19.40;54.20
573;DHT22;271;51.114;13.780;2022-08-20T11:14:33;19.50;54.40
573;DHT22;271;51.114;13.780;2022-08-20T11:17:02;19.50;53.80
573;DHT22;271;51.114;13.780;2022-08-20T11:19:30;19.50;47.80
573;DHT22;271;51.114;13.780;2022-08-20T11:22:00;19.40;48.10
573;DHT22;271;51.114;13.780;2022-08-20T11:24:28;19.40;48.30
573;DHT22;271;51.114;13.780;2022-08-20T11:26:55;19.50;51.20
573;DHT22;271;51.114;13.780;2022-08-20T11:29:23;19.50;53.30
573;DHT22;271;51.114;13.780;2022-08-20T11:31:50;19.50;48.90
573;DHT22;271;51.114;13.780;2022-08-20T11:34:19;19.50;49.20
573;DHT22;271;51.114;13.780;2022-08-20T11:36:47;19.50;52.50
573;DHT22;271;51.114;13.780;2022-08-20T11:39:14;19.50;53.50
573;DHT22;271;51.114;13.780;2022-08-20T11:41:42;19.50;53.00
573;DHT22;271;51.114;13.780;2022-08-20T11:44:09;19.50;53.10
573;DHT22;271;51.114;13.780;2022-08-20T11:46:36;19.50;53.10
573;DHT22;271;51.114;13.780;2022-08-20T11:49:04;19.50;52.10
573;DHT22;271;51.114;13.780;2022-08-20T11:51:33;19.50;50.20
573;DHT22;271;51.114;13.780;2022-08-20T11:54:02;19.50;52.40
573;DHT22;271;51.114;13.780;2022-08-20T11:56:29;19.50;49.50
573;DHT22;271;51.114;13.780;2022-08-20T11:58:56;19.50;49.00
573;DHT22;271;51.114;13.780;2022-08-20T12:01:24;19.50;47.70
573;DHT22;271;51.114;13.780;2022-08-20T12:03:51;19.50;45.40
573;DHT22;271;51.114;13.780;2022-08-20T12:06:18;19.50;45.20
573;DHT22;271;51.114;13.780;2022-08-20T12:08:47;19.50;45.20
573;DHT22;271;51.114;13.780;2022-08-20T12:11:14;19.50;44.70
573;DHT22;271;51.114;13.780;2022-08-20T12:13:42;19.50;47.70
573;DHT22;271;51.114;13.780;2022-08-20T12:16:09;19.50;49.40
573;DHT22;271;51.114;13.780;2022-08-20T12:18:36;19.50;49.60
573;DHT22;271;51.114;13.780;2022-08-20T12:21:04;19.40;48.40
573;DHT22;271;51.114;13.780;2022-08-20T12:23:31;19.50;49.00
573;DHT22;271;51.114;13.780;2022-08-20T12:26:00;19.50;51.70
573;DHT22;271;51.114;13.780;2022-08-20T12:28:28;19.50;53.30
573;DHT22;271;51.114;13.780;2022-08-20T12:30:56;19.50;53.30
573;DHT22;271;51.114;13.780;2022-08-20T12:33:23;19.50;56.40
573;DHT22;271;51.114;13.780;2022-08-20T12:35:51;19.50;54.50
573;DHT22;271;51.114;13.780;2022-08-20T12:38:19;19.50;54.40
573;DHT22;271;51.114;13.780;2022-08-20T12:40:46;19.50;56.80
573;DHT22;271;51.114;13.780;2022-08-20T12:43:15;19.50;53.00
573;DHT22;271;51.114;13.780;2022-08-20T12:45:42;19.40;50.40
573;DHT22;271;51.114;13.780;2022-08-20T12:48:11;19.50;52.70
573;DHT22;271;51.114;13.780;2022-08-20T12:50:41;19.40;49.60
573;DHT22;271;51.114;13.780;2022-08-20T12:53:10;19.50;49.30
573;DHT22;271;51.114;13.780;2022-08-20T12:55:38;19.40;50.10
573;DHT22;271;51.114;13.780;2022-08-20T12:58:09;19.40;51.20
573;DHT22;271;51.114;13.780;2022-08-20T13:00:41;19.40;51.80
573;DHT22;271;51.114;13.780;2022-08-20T13:03:10;19.40;52.90
573;DHT22;271;51.114;13.780;2022-08-20T13:05:38;19.40;54.30
573;DHT22;271;51.114;13.780;2022-08-20T13:08:06;19.40;53.30
573;DHT22;271;51.114;13.780;2022-08-20T13:10:35;19.40;55.40
573;DHT22;271;51.114;13.780;2022-08-20T13:13:03;19.40;55.90
573;DHT22;271;51.114;13.780;2022-08-20T13:15:31;19.40;52.50
573;DHT22;271;51.114;13.780;2022-08-20T13:18:02;19.40;53.00
573;DHT22;271;51.114;13.780;2022-08-20T13:20:32;19.50;55.00
573;DHT22;271;51.114;13.780;2022-08-20T13:22:59;19.40;53.70
573;DHT22;271;51.114;13.780;2022-08-20T13:25:26;19.40;53.70
573;DHT22;271;51.114;13.780;2022-08-20T13:27:58;19.40;55.30
573;DHT22;271;51.114;13.780;2022-08-20T13:30:26;19.40;56.20
573;DHT22;271;51.114;13.780;2022-08-20T13:32:53;19.50;59.70
573;DHT22;271;51.114;13.780;2022-08-20T13:35:22;19.40;54.50
573;DHT22;271;51.114;13.780;2022-08-20T13:37:49;19.40;49.80
573;DHT22;271;51.114;13.780;2022-08-20T13:40:17;19.40;51.50
573;DHT22;271;51.114;13.780;2022-08-20T13:42:44;19.50;52.70
573;DHT22;271;51.114;13.780;2022-08-20T13:45:11;19.50;51.20
573;DHT22;271;51.114;13.780;2022-08-20T13:47:40;19.40;49.10
573;DHT22;271;51.114;13.780;2022-08-20T13:50:10;19.50;50.50
573;DHT22;271;51.114;13.780;2022-08-20T13:52:40;19.40;43.90
573;DHT22;271;51.114;13.780;2022-08-20T13:55:10;19.40;43.40
573;DHT22;271;51.114;13.780;2022-08-20T13:57:38;19.40;41.20
573;DHT22;271;51.114;13.780;2022-08-20T14:00:08;19.40;42.70
573;DHT22;271;51.114;13.780;2022-08-20T14:02:36;19.40;39.40
573;DHT22;271;51.114;13.780;2022-08-20T14:05:05;19.30;36.10
573;DHT22;271;51.114;13.780;2022-08-20T14:07:32;19.30;38.40
573;DHT22;271;51.114;13.780;2022-08-20T14:10:04;19.30;40.10
573;DHT22;271;51.114;13.780;2022-08-20T14:12:32;19.20;36.60
573;DHT22;271;51.114;13.780;2022-08-20T14:14:59;19.30;39.10
573;DHT22;271;51.114;13.780;2022-08-20T14:17:28;19.30;39.10
573;DHT22;271;51.114;13.780;2022-08-20T14:19:58;19.30;40.10
573;DHT22;271;51.114;13.780;2022-08-20T14:22:26;19.30;32.60
573;DHT22;271;51.114;13.780;2022-08-20T14:24:54;19.20;30.50
573;DHT22;271;51.114;13.780;2022-08-20T14:27:23;19.20;28.40
573;DHT22;271;51.114;13.780;2022-08-20T14:29:50;19.10;26.40
573;DHT22;271;51.114;13.780;2022-08-20T14:32:17;19.10;29.40
573;DHT22;271;51.114;13.780;2022-08-20T14:34:44;19.20;32.80
573;DHT22;271;51.114;13.780;2022-08-20T14:37:13;19.20;33.80
573;DHT22;271;51.114;13.780;2022-08-20T14:39:42;19.20;33.60
573;DHT22;271;51.114;13.780;2022-08-20T14:42:09;19.20;34.80
573;DHT22;271;51.114;13.780;2022-08-20T14:44:38;19.30;34.80
573;DHT22;271;51.114;13.780;2022-08-20T14:47:13;19.20;30.10
573;DHT22;271;51.114;13.780;2022-08-20T14:49:41;19.20;26.30
573;DHT22;271;51.114;13.780;2022-08-20T14:52:09;19.10;21.60
573;DHT22;271;51.114;13.780;2022-08-20T14:54:37;19.10;25.30
573;DHT22;271;51.114;13.780;2022-08-20T14:57:04;19.20;29.00
573;DHT22;271;51.114;13.780;2022-08-20T14:59:32;19.20;31.60
573;DHT22;271;51.114;13.780;2022-08-20T15:02:01;19.20;29.10
573;DHT22;271;51.114;13.780;2022-08-20T15:04:28;19.20;32.20
573;DHT22;271;51.114;13.780;2022-08-20T15:06:55;19.20;30.00
573;DHT22;271;51.114;13.780;2022-08-20T15:09:23;19.20;28.00
573;DHT22;271;51.114;13.780;2022-08-20T15:11:50;19.20;27.10
573;DHT22;271;51.114;13.780;2022-08-20T15:14:17;19.20;29.50
573;DHT22;271;51.114;13.780;2022-08-20T15:16:45;19.20;32.20
573;DHT22;271;51.114;13.780;2022-08-20T15:19:13;19.20;30.50
573;DHT22;271;51.114;13.780;2022-08-20T15:21:41;19.30;33.10
573;DHT22;271;51.114;13.780;2022-08-20T15:24:08;19.30;31.30
573;DHT22;271;51.114;13.780;2022-08-20T15:26:35;19.30;31.80
573;DHT22;271;51.114;13.780;2022-08-20T15:29:03;19.30;33.30
573;DHT22;271;51.114;13.780;2022-08-20T15:31:30;19.30;32.40
573;DHT22;271;51.114;13.780;2022-08-20T15:33:57;19.40;34.50
573;DHT22;271;51.114;13.780;2022-08-20T15:36:26;19.30;34.70
573;DHT22;271;51.114;13.780;2022-08-20T15:38:53;19.30;36.20
573;DHT22;271;51.114;13.780;2022-08-20T15:41:20;19.40;36.10
573;DHT22;271;51.114;13.780;2022-08-20T15:43:48;19.40;38.30
573;DHT22;271;51.114;13.780;2022-08-20T15:46:17;19.40;35.30
573;DHT22;271;51.114;13.780;2022-08-20T15:48:46;19.40;36.30
573;DHT22;271;51.114;13.780;2022-08-20T15:51:21;19.40;39.10
573;DHT22;271;51.114;13.780;2022-08-20T15:54:01;19.40;40.80
573;DHT22;271;51.114;13.780;2022-08-20T15:56:49;19.40;42.90
573;DHT22;271;51.114;13.780;2022-08-20T15:59:37;19.40;42.20
573;DHT22;271;51.114;13.780;2022-08-20T16:02:29;19.30;38.10
573;DHT22;271;51.114;13.780;2022-08-20T16:05:16;19.30;38.90
573;DHT22;271;51.114;13.780;2022-08-20T16:07:51;19.30;39.20
573;DHT22;271;51.114;13.780;2022-08-20T16:10:26;19.40;39.80
573;DHT22;271;51.114;13.780;2022-08-20T16:12:58;19.40;39.10
573;DHT22;271;51.114;13.780;2022-08-20T16:15:33;19.40;39.70
573;DHT22;271;51.114;13.780;2022-08-20T16:18:05;19.40;38.10
573;DHT22;271;51.114;13.780;2022-08-20T16:20:39;19.30;34.60
573;DHT22;271;51.114;13.780;2022-08-20T16:23:09;19.30;35.00
573;DHT22;271;51.114;13.780;2022-08-20T16:25:50;19.20;39.70
573;DHT22;271;51.114;13.780;2022-08-20T16:28:24;19.30;43.90
573;DHT22;271;51.114;13.780;2022-08-20T16:31:00;19.30;36.10